地図

経路データ

SID SEASON NUMBER BASIN SUBBASIN NAME ISO_TIME NATURE LAT LON WMO_WIND WMO_PRES WMO_AGENCY TRACK_TYPE DIST2LAND LANDFALL IFLAG USA_AGENCY USA_ATCF_ID USA_LAT USA_LON USA_RECORD USA_STATUS USA_WIND USA_PRES USA_SSHS USA_R34_NE USA_R34_SE USA_R34_SW USA_R34_NW USA_R50_NE USA_R50_SE USA_R50_SW USA_R50_NW USA_R64_NE USA_R64_SE USA_R64_SW USA_R64_NW USA_POCI USA_ROCI USA_RMW USA_EYE TOKYO_LAT TOKYO_LON TOKYO_GRADE TOKYO_WIND TOKYO_PRES TOKYO_R50_DIR TOKYO_R50_LONG TOKYO_R50_SHORT TOKYO_R30_DIR TOKYO_R30_LONG TOKYO_R30_SHORT TOKYO_LAND CMA_LAT CMA_LON CMA_CAT CMA_WIND CMA_PRES HKO_LAT HKO_LON HKO_CAT HKO_WIND HKO_PRES NEWDELHI_LAT NEWDELHI_LON NEWDELHI_GRADE NEWDELHI_WIND NEWDELHI_PRES NEWDELHI_CI NEWDELHI_DP NEWDELHI_POCI REUNION_LAT REUNION_LON REUNION_TYPE REUNION_WIND REUNION_PRES REUNION_TNUM REUNION_CI REUNION_RMW REUNION_R34_NE REUNION_R34_SE REUNION_R34_SW REUNION_R34_NW REUNION_R50_NE REUNION_R50_SE REUNION_R50_SW REUNION_R50_NW REUNION_R64_NE REUNION_R64_SE REUNION_R64_SW REUNION_R64_NW BOM_LAT BOM_LON BOM_TYPE BOM_WIND BOM_PRES BOM_TNUM BOM_CI BOM_RMW BOM_R34_NE BOM_R34_SE BOM_R34_SW BOM_R34_NW BOM_R50_NE BOM_R50_SE BOM_R50_SW BOM_R50_NW BOM_R64_NE BOM_R64_SE BOM_R64_SW BOM_R64_NW BOM_ROCI BOM_POCI BOM_EYE BOM_POS_METHOD BOM_PRES_METHOD NADI_LAT NADI_LON NADI_CAT NADI_WIND NADI_PRES WELLINGTON_LAT WELLINGTON_LON WELLINGTON_WIND WELLINGTON_PRES DS824_LAT DS824_LON DS824_STAGE DS824_WIND DS824_PRES TD9636_LAT TD9636_LON TD9636_STAGE TD9636_WIND TD9636_PRES TD9635_LAT TD9635_LON TD9635_WIND TD9635_PRES TD9635_ROCI NEUMANN_LAT NEUMANN_LON NEUMANN_CLASS NEUMANN_WIND NEUMANN_PRES MLC_LAT MLC_LON MLC_CLASS MLC_WIND MLC_PRES USA_GUST BOM_GUST BOM_GUST_PER REUNION_GUST REUNION_GUST_PER USA_SEAHGT USA_SEARAD_NE USA_SEARAD_SE USA_SEARAD_SW USA_SEARAD_NW STORM_SPEED STORM_DIR
1989364S05095 1990 132 SI WA BAOMAVO 1989-12-29 18:00:00 TS -5.00000 95.0000 main 569 569 O___________O_ jtwc_sh SH091990 -5.00000 95.0000 20 -1 -5.00000 95.0000 TC 20 8 231
1989364S05095 1990 132 SI WA BAOMAVO 1989-12-29 21:00:00 TS -5.25004 94.6876 main 616 616 P___________P_ SH091990 -5.25004 94.6876 20 -1 -5.25004 94.6876 TC 20 8 230
1989364S05095 1990 132 SI WA BAOMAVO 1989-12-30 00:00:00 TS -5.50000 94.4000 main 656 656 O___________O_ jtwc_sh SH091990 -5.50000 94.4000 20 -1 -5.50000 94.4000 TC 20 7 227
1989364S05095 1990 132 SI WA BAOMAVO 1989-12-30 03:00:00 TS -5.74997 94.1500 main 696 696 P___________P_ SH091990 -5.74997 94.1500 20 -1 -5.74997 94.1500 TC 20 7 225
1989364S05095 1990 132 SI WA BAOMAVO 1989-12-30 06:00:00 TS -6.00000 93.9000 main 735 735 O___________O_ jtwc_sh SH091990 -6.00000 93.9000 20 -1 -6.00000 93.9000 TC 20 7 227
1989364S05095 1990 132 SI WA BAOMAVO 1989-12-30 09:00:00 TS -6.24998 93.6150 main 774 774 P___________P_ SH091990 -6.24998 93.6150 20 -1 -6.24998 93.6150 TC 20 8 230
1989364S05095 1990 132 SI WA BAOMAVO 1989-12-30 12:00:00 TS -6.50000 93.3000 main 821 821 O___________O_ jtwc_sh SH091990 -6.50000 93.3000 20 -1 -6.50000 93.3000 TC 20 8 233
1989364S05095 1990 132 SI WA BAOMAVO 1989-12-30 15:00:00 TS -6.75001 92.9500 main 877 877 P___________P_ SH091990 -6.75001 92.9500 20 -1 -6.75001 92.9500 TC 20 9 234
1989364S05095 1990 132 SI WA BAOMAVO 1989-12-30 18:00:00 TS -7.00000 92.6000 main 917 917 O___________O_ jtwc_sh SH091990 -7.00000 92.6000 20 -1 -7.00000 92.6000 TC 20 8 232
1989364S05095 1990 132 SI WA BAOMAVO 1989-12-30 21:00:00 TS -7.25746 92.2925 main 964 964 P___________P_ SH091990 -7.25746 92.2925 20 -1 -7.25746 92.2925 TC 20 8 230
1989364S05095 1990 132 SI WA BAOMAVO 1989-12-31 00:00:00 TS -7.50000 92.0000 main 1003 1003 O___________O_ jtwc_sh SH091990 -7.50000 92.0000 20 -1 -7.50000 92.0000 TC 20 8 232
1989364S05095 1990 132 SI WA BAOMAVO 1989-12-31 03:00:00 TS -7.72251 91.6850 main 1043 1043 P___________P_ SH091990 -7.72251 91.6850 20 -1 -7.72251 91.6850 TC 20 7 236
1989364S05095 1990 132 SI WA BAOMAVO 1989-12-31 06:00:00 TS -7.90000 91.4000 main 1083 1083 O___________O_ jtwc_sh SH091990 -7.90000 91.4000 20 -1 -7.90000 91.4000 TC 20 6 239
1989364S05095 1990 132 SI WA BAOMAVO 1989-12-31 09:00:00 TS -8.01496 91.1850 main 1107 1107 P___________P_ SH091990 -8.01496 91.1850 20 -1 -8.01496 91.1850 TC 20 4 243
1989364S05095 1990 132 SI WA BAOMAVO 1989-12-31 12:00:00 TS -8.10000 91.0000 main 1131 1131 O___________O_ jtwc_sh SH091990 -8.10000 91.0000 20 -1 -8.10000 91.0000 TC 20 4 244
1989364S05095 1990 132 SI WA BAOMAVO 1989-12-31 15:00:00 TS -8.20000 90.7925 main 1156 1156 P___________P_ SH091990 -8.20000 90.7925 20 -1 -8.20000 90.7925 TC 20 4 243
1989364S05095 1990 132 SI WA BAOMAVO 1989-12-31 18:00:00 TS -8.30000 90.6000 main 1180 1180 O___________O_ jtwc_sh SH091990 -8.30000 90.6000 20 -1 -8.30000 90.6000 TC 20 4 240
1989364S05095 1990 132 SI WA BAOMAVO 1989-12-31 21:00:00 TS -8.39998 90.4425 main 1204 1204 P___________P_ SH091990 -8.39998 90.4425 20 -1 -8.39998 90.4425 TC 20 4 236
1989364S05095 1990 132 SI WA BAOMAVO 1990-01-01 00:00:00 TS -8.50000 90.3000 main 1220 1220 O___________O_ jtwc_sh SH091990 -8.50000 90.3000 20 -1 -8.50000 90.3000 TC 20 4 234
1989364S05095 1990 132 SI WA BAOMAVO 1990-01-01 03:00:00 TS -8.60749 90.1500 main 1235 1235 P___________P_ SH091990 -8.60749 90.1500 20 -1 -8.60749 90.1500 TC 20 4 236
1989364S05095 1990 132 SI WA BAOMAVO 1990-01-01 06:00:00 TS -8.70000 90.0000 main 1259 1259 O___________O_ jtwc_sh SH091990 -8.70000 90.0000 20 -1 -8.70000 90.0000 TC 20 3 245
1989364S05095 1990 132 SI MM BAOMAVO 1990-01-01 09:00:00 TS -8.75000 89.8425 main 1277 1284 P___________P_ SH091990 -8.75000 89.8425 20 -1 -8.75000 89.8425 TC 20 3 251
1989364S05095 1990 132 SI MM BAOMAVO 1990-01-01 12:00:00 TS -8.80000 89.7000 main 1292 1292 O___________O_ jtwc_sh SH091990 -8.80000 89.7000 20 -1 -8.80000 89.7000 TC 20 3 240
1989364S05095 1990 132 SI MM BAOMAVO 1990-01-01 15:00:00 TS -8.89249 89.5925 main 1308 1308 P___________P_ SH091990 -8.89249 89.5925 22 -1 -8.89249 89.5925 TC 22 3 225
1989364S05095 1990 132 SI MM BAOMAVO 1990-01-01 18:00:00 TS -9.00000 89.5000 main 1323 1323 O___________O_ jtwc_sh SH091990 -9.00000 89.5000 25 -1 -9.00000 89.5000 TC 25 3 224
1989364S05095 1990 132 SI MM BAOMAVO 1990-01-01 21:00:00 TS -9.09250 89.4000 main 1339 1339 P___________P_ SH091990 -9.09250 89.4000 25 -1 -9.09250 89.4000 TC 25 3 225
1989364S05095 1990 132 SI MM BAOMAVO 1990-01-02 00:00:00 TS -9.20000 89.3000 main 1355 1355 O___________O_ jtwc_sh SH091990 -9.20000 89.3000 25 -1 -9.20000 89.3000 TC 25 3 221
1989364S05095 1990 132 SI MM BAOMAVO 1990-01-02 03:00:00 TS -9.32750 89.1925 main 1370 1370 P___________P_ SH091990 -9.32750 89.1925 25 -1 -9.32750 89.1925 TC 25 4 199
1989364S05095 1990 132 SI MM BAOMAVO 1990-01-02 06:00:00 TS -9.55556 89.1778 main 1391 1391 O____O______O_ jtwc_sh SH091990 -9.50000 89.1000 25 -1 -10.0000 89.8000 2 28 997 9.90000 2.50000 -9.50000 89.1000 TC 25 5 188
1989364S05095 1990 132 SI MM BAOMAVO 1990-01-02 09:00:00 TS -9.82903 89.1185 main 1414 1414 P____P______P_ SH091990 -9.72000 89.0425 27 -1 -10.2651 89.4227 2 28 997 -9.72000 89.0425 TC 27 6 191
1989364S05095 1990 132 SI MM BAOMAVO 1990-01-02 12:00:00 TS -10.1636 89.0545 main 1442 1442 O____O______O_ jtwc_sh SH091990 -10.0000 89.0000 30 -1 -10.6000 89.2000 2 28 997 9.90000 2.50000 -10.0000 89.0000 TC 30 7 184
1989364S05095 1990 132 SI MM BAOMAVO 1990-01-02 15:00:00 TS -10.5608 89.0590 main 1472 1472 P____P______P_ SH091990 -10.3200 88.9724 32 -1 -11.0425 89.2323 2 28 997 -10.3200 88.9724 TC 32 8 179
1989364S05095 1990 132 SI MM BAOMAVO 1990-01-02 18:00:00 TS -10.9667 89.0667 main 1502 1502 O____O______O_ jtwc_sh SH091990 -10.7000 88.9000 35 0 -11.5000 89.4000 2 28 997 9.90000 2.50000 -10.7000 88.9000 TC 35 8 184
1989364S05095 1990 132 SI MM BAOMAVO 1990-01-02 21:00:00 TS -11.3858 89.0083 main 1541 1541 P____P______P_ SH091990 -11.1425 88.7300 37 0 -11.8725 89.5649 2 32 994 -11.1425 88.7300 TC 37 9 191
1989364S05095 1990 132 SI MM BAOMAVO 1990-01-03 00:00:00 TS -11.8000 88.9000 main 1580 1580 O____O______O_ jtwc_sh SH091990 -11.6000 88.5000 40 0 -12.2000 89.7000 3 36 991 9.90000 3.00000 -11.6000 88.5000 TC 40 8 198
1989364S05095 1990 132 SI MM BAOMAVO 1990-01-03 03:00:00 TS -12.1791 88.7508 main 1620 1620 P____P______P_ SH091990 -12.0149 88.2724 40 0 -12.5075 89.7076 3 36 991 -12.0149 88.2724 TC 40 8 204
1989364S05095 1990 132 SI MM BAOMAVO 1990-01-03 06:00:00 TS -12.5333 88.5667 main 1659 1659 O____O______O_ jtwc_sh SH091990 -12.4000 88.0000 40 0 -12.8000 89.7000 3 36 991 9.90000 3.00000 -12.4000 88.0000 TC 40 8 204
1989364S05095 1990 132 SI MM BAOMAVO 1990-01-03 09:00:00 TS -12.8864 88.4340 main 1706 1706 P____P______P_ SH091990 -12.7650 87.6724 42 0 -13.1294 89.9571 3 36 991 -12.7650 87.6724 TC 42 8 210
1989364S05095 1990 132 SI MM BAOMAVO 1990-01-03 12:00:00 TS -13.2000 88.1667 main 1746 1746 O____O______O_ jtwc_sh SH091990 -13.1000 87.3000 45 0 -13.4000 89.9000 3 36 991 9.90000 3.00000 -13.1000 87.3000 TC 45 10 235
1989364S05095 1990 132 SI MM BAOMAVO 1990-01-03 15:00:00 TS -13.4488 87.5949 main 1807 1807 P____P______P_ SH091990 -13.4149 86.9224 47 0 -13.5168 88.9400 3 36 991 -13.4149 86.9224 TC 47 13 249
1989364S05095 1990 132 SI MM BAOMAVO 1990-01-03 18:00:00 TS -13.6667 86.9333 main 1884 1884 O____O______O_ jtwc_sh SH091990 -13.7000 86.5000 50 0 -13.6000 87.8000 3 36 991 9.90000 3.00000 -13.7000 86.5000 TC 50 13 250
1989364S05095 1990 132 SI MM BAOMAVO 1990-01-03 21:00:00 TS -13.8874 86.3808 main 1939 1939 P____P______P_ SH091990 -13.9577 85.9775 50 0 -13.7469 87.1874 3 40 987 -13.9577 85.9775 TC 50 11 244
1989364S05095 1990 132 SI MM BAOMAVO 1990-01-04 00:00:00 TS -14.1333 85.9333 main 1993 1993 O____O______O_ jtwc_sh SH091990 -14.2000 85.5000 50 0 -14.0000 86.8000 3 44 984 9.90000 3.50000 -14.2000 85.5000 TC 50 9 234
1989364S05095 1990 132 SI MM BAOMAVO 1990-01-04 03:00:00 TS -14.4349 85.6017 main 2040 2040 P____P______P_ SH091990 -14.4424 85.1824 52 0 -14.4199 86.4401 3 48 980 -14.4424 85.1824 TC 52 8 219
1989364S05095 1990 132 SI MM BAOMAVO 1990-01-04 06:00:00 TS -14.7667 85.4000 main 2086 2086 O____O______O_ jtwc_sh SH091990 -14.7000 85.0000 55 0 -14.9000 86.2000 3 52 976 9.90000 4.00000 -14.7000 85.0000 TC 55 7 203
1989364S05095 1990 132 SI MM BAOMAVO 1990-01-04 09:00:00 TS -15.0999 85.3082 main 2117 2117 P____P______P_ SH091990 -14.9849 84.9273 60 0 -15.3299 86.0698 3 52 976 -14.9849 84.9273 TC 60 7 191
1989364S05095 1990 132 SI MM BAOMAVO 1990-01-04 12:00:00 TS -15.4333 85.2667 main 2140 2140 O____O______O_ jtwc_sh SH091990 -15.3000 84.9000 65 1 -15.7000 86.0000 3 52 976 9.90000 4.00000 -15.3000 84.9000 TC 65 7 192
1989364S05095 1990 132 SI MM BAOMAVO 1990-01-04 15:00:00 TS -15.7550 85.1642 main 2180 2180 P____P______P_ SH091990 -15.6500 84.7926 67 1 -15.9650 85.9074 3 52 976 -15.6500 84.7926 TC 67 7 197
1989364S05095 1990 132 SI MM BAOMAVO 1990-01-04 18:00:00 TS -16.0667 85.0667 main 2211 2211 O____O______O_ jtwc_sh SH091990 -16.0000 84.7000 70 1 -16.2000 85.8000 3 52 976 9.90000 4.00000 -16.0000 84.7000 TC 70 6 193
1989364S05095 1990 132 SI MM BAOMAVO 1990-01-04 21:00:00 TS -16.3642 85.0141 main 2242 2242 P____P______P_ SH091990 -16.2925 84.6924 72 1 -16.5075 85.6575 3 57 971 -16.2925 84.6924 TC 72 6 189
1989364S05095 1990 132 SI MM BAOMAVO 1990-01-05 00:00:00 TS -16.6667 84.9667 main 2267 2267 O____O______O_ jtwc_sh SH091990 -16.6000 84.7000 75 1 -16.8000 85.5000 3 62 966 9.90000 4.50000 -16.6000 84.7000 TC 75 6 191
1989364S05095 1990 132 SI MM BAOMAVO 1990-01-05 03:00:00 TS -16.9850 84.8933 main 2298 2298 P____P______P_ SH091990 -16.9850 84.6650 77 1 -16.9850 85.3499 3 67 960 -16.9850 84.6650 TC 77 7 193
1989364S05095 1990 132 SI MM BAOMAVO 1990-01-05 06:00:00 TS -17.3333 84.8000 main 2330 2330 O____O______O_ jtwc_sh SH091990 -17.4000 84.6000 80 1 -17.2000 85.2000 4 72 954 9.90000 5.00000 -17.4000 84.6000 TC 80 8 195
1989364S05095 1990 132 SI MM BAOMAVO 1990-01-05 09:00:00 TS -17.7158 84.6809 main 2370 2370 P____P______P_ SH091990 -17.7850 84.5000 82 1 -17.5775 85.0426 4 72 954 -17.7850 84.5000 TC 82 8 196
1989364S05095 1990 132 SI MM BAOMAVO 1990-01-05 12:00:00 TS -18.1333 84.5667 main 2410 2410 O____O______O_ jtwc_sh SH091990 -18.2000 84.4000 85 2 -18.0000 84.9000 4 72 954 9.90000 5.00000 -18.2000 84.4000 TC 85 9 192
1989364S05095 1990 132 SI MM BAOMAVO 1990-01-05 15:00:00 TS -18.5583 84.4924 main 2459 2459 P____P______P_ SH091990 -18.6700 84.3424 85 2 -18.3350 84.7924 4 72 954 -18.6700 84.3424 TC 85 9 188
1989364S05095 1990 132 SI MM BAOMAVO 1990-01-05 18:00:00 TS -19.0333 84.4333 main 2500 2500 O____O______O_ jtwc_sh SH091990 -19.2000 84.3000 85 2 -18.7000 84.7000 4 72 954 9.90000 5.00000 -19.2000 84.3000 TC 85 11 188
1989364S05095 1990 132 SI MM BAOMAVO 1990-01-05 21:00:00 TS -19.6071 84.3319 main 2558 2558 P____P______P_ SH091990 -19.7625 84.2426 85 2 -19.1690 84.5922 4 72 954 -19.7625 84.2426 TC 85 12 188
1989364S05095 1990 132 SI MM BAOMAVO 1990-01-06 00:00:00 TS -20.2600 84.2600 main 2618 2618 O____O______O_ jtwc_sh SH091990 -20.4000 84.2000 85 2 -19.7000 84.5000 4 72 954 9.90000 5.00000 -20.4000 84.2000 TC 85 14 184
1989364S05095 1990 132 SI MM BAOMAVO 1990-01-06 03:00:00 TS -20.9992 84.2221 main 2685 2685 P____P______P_ SH091990 -21.1125 84.1777 82 1 -20.2537 84.4449 4 -21.1125 84.1777 TC 82 17 182
1989364S05095 1990 132 SI MM BAOMAVO 1990-01-06 06:00:00 TS -21.9000 84.2000 main 2740 2740 O____P______O_ jtwc_sh SH091990 -21.9000 84.2000 80 1 -20.8216 84.4287 4 -21.9000 84.2000 TC 80 18 179
1989364S05095 1990 132 SI MM BAOMAVO 1990-01-06 09:00:00 TS -22.7500 84.2701 main 2750 2750 P____P______P_ SH091990 -22.7500 84.2701 80 1 -21.4025 84.4482 4 -22.7500 84.2701 TC 80 17 174
1989364S05095 1990 132 SI MM BAOMAVO 1990-01-06 12:00:00 TS -23.6000 84.4000 main 2763 2763 O____P______O_ jtwc_sh SH091990 -23.6000 84.4000 80 1 -21.9951 84.5004 4 -23.6000 84.4000 TC 80 17 170
1989364S05095 1990 132 SI MM BAOMAVO 1990-01-06 15:00:00 TS -24.3950 84.5923 main 2788 2788 P____P______P_ SH091990 -24.3950 84.5923 77 1 -22.5982 84.5819 4 -24.3950 84.5923 TC 77 16 166
1989364S05095 1990 132 SI MM BAOMAVO 1990-01-06 18:00:00 TS -25.1000 84.8000 main 2815 2815 O____P______O_ jtwc_sh SH091990 -25.1000 84.8000 75 1 -23.2106 84.6896 4 -25.1000 84.8000 TC 75 13 167
1989364S05095 1990 132 SI MM BAOMAVO 1990-01-06 21:00:00 TS -25.7023 84.9281 main 2830 2804 P____P______P_ SH091990 -25.7023 84.9281 67 1 -23.8308 84.8202 4 -25.7023 84.9281 TC 67 11 166
1989364S05095 1990 132 SI MM BAOMAVO 1990-01-07 00:00:00 TS -26.2000 85.1000 main 2804 2769 O____P______O_ jtwc_sh SH091990 -26.2000 85.1000 60 0 -24.4575 84.9706 4 -26.2000 85.1000 TC 60 10 155
1989364S05095 1990 132 SI MM BAOMAVO 1990-01-07 03:00:00 TS -26.6300 85.4126 main 2769 2726 P____P______P_ SH091990 -26.6300 85.4126 55 0 -25.0892 85.1372 4 -26.6300 85.4126 TC 55 10 142
1989364S05095 1990 132 SI MM BAOMAVO 1990-01-07 06:00:00 TS -27.0000 85.8000 main 2726 2694 O____P______O_ jtwc_sh SH091990 -27.0000 85.8000 50 0 -25.7246 85.3167 4 -27.0000 85.8000 TC 50 9 135
1989364S05095 1990 132 SI MM BAOMAVO 1990-01-07 09:00:00 MX -27.2402 86.0948 main 2694 2652 P____P______P_ SH091990 -27.3500 86.2003 45 0 -26.3620 85.5055 4 -27.3500 86.2003 TC 45 9 135
1989364S05095 1990 132 SI MM BAOMAVO 1990-01-07 12:00:00 MX -27.6222 86.5000 main 2652 2601 O____O______O_ jtwc_sh SH091990 -27.7000 86.6000 40 0 -27.0000 85.7000 5 62 976 9.90000 4.00000 -27.7000 86.6000 TC 40 12 137
1989364S05095 1990 132 SI MM BAOMAVO 1990-01-07 15:00:00 TS -28.0775 86.9875 main 2601 2570 P___________P_ SH091990 -28.0775 86.9875 37 0 5 -28.0775 86.9875 TC 37 11 141
1989364S05095 1990 132 SI MM BAOMAVO 1990-01-07 18:00:00 TS -28.5000 87.3000 main 2570 2551 O___________O_ jtwc_sh SH091990 -28.5000 87.3000 35 0 5 -28.5000 87.3000 TC 35 10 155
1989364S05095 1990 132 SI MM BAOMAVO 1990-01-07 21:00:00 TS -28.9848 87.4731 main 2551 2542 P___________P_ SH091990 -28.9848 87.4731 35 0 5 -28.9848 87.4731 TC 35 10 165
1989364S05095 1990 132 SI MM BAOMAVO 1990-01-08 00:00:00 TS -29.5000 87.6000 main 2542 2525 O___________O_ jtwc_sh SH091990 -29.5000 87.6000 35 0 5 -29.5000 87.6000 TC 35 11 165
1989364S05095 1990 132 SI MM BAOMAVO 1990-01-08 03:00:00 TS -30.0000 87.7926 main 2525 2509 P___________P_ SH091990 -30.0000 87.7926 35 0 5 -30.0000 87.7926 TC 35 11 161
1989364S05095 1990 132 SI MM BAOMAVO 1990-01-08 06:00:00 TS -30.5000 88.0000 main 2510 2495 O___________O_ jtwc_sh SH091990 -30.5000 88.0000 35 0 5 -30.5000 88.0000 TC 35 11 160
1989364S05095 1990 132 SI MM BAOMAVO 1990-01-08 09:00:00 TS -31.0000 88.2021 main 2496 2461 P___________P_ SH091990 -31.0000 88.2021 35 0 5 -31.0000 88.2021 TC 35 11 161
1989364S05095 1990 132 SI MM BAOMAVO 1990-01-08 12:00:00 TS -31.5000 88.4000 main 2461 O___________O_ jtwc_sh SH091990 -31.5000 88.4000 35 0 5 -31.5000 88.4000 TC 35 11 161

IBTrACS Databaseについて

本データベースは、米国NOAAが公開する1842年以降の世界の熱帯低気圧のベストトラックデータアーカイブInternational Best Track Archive for Climate Stewardship (IBTrACS)を、ウェブで閲覧しやすい形式に変換したものです。

最終更新日:2021-10-21